CheckWX is a tool to help pilots better visualize weather data.  It is not intended as a substitute for an official pre-flight weather briefing.

02:51:53 UTC

KHCD METAR
Hutchinson Municipal-Butler Field Airport
Hutchinson, Minnesota, USA
Current

53 mins ago

KHCD 240159Z AUTO 00000KT 10SM CLR 04/03 A3012 RMK AO2
Observed
Mar-24 @ 01:59 UTC
Visibility
10 SM
Flight Rules
VFR
Cloud Levels
  • Clear skies
Temperature
C / 39°F
Dewpoint
C / 37°F
Humidity
93%
Altimeter
30.12" Hg
Pressure
1020.02 hPa
Previous

2 hours ago

KHCD 240059Z AUTO 00000KT 10SM CLR 07/05 A3013 RMK AO2
Observed
Mar-24 @ 00:59 UTC
Visibility
10 SM
Flight Rules
VFR
Cloud Levels
  • Clear skies
Temperature
C / 45°F
Dewpoint
C / 41°F
Humidity
87%
Altimeter
30.13" Hg
Pressure
1020.32 hPa
Previous

3 hours ago

KHCD 232359Z AUTO 00000KT 10SM CLR 08/05 A3013 RMK AO2
Observed
Mar-23 @ 23:59 UTC
Visibility
10 SM
Flight Rules
VFR
Cloud Levels
  • Clear skies
Temperature
C / 46°F
Dewpoint
C / 41°F
Humidity
82%
Altimeter
30.13" Hg
Pressure
1020.32 hPa